sensor_id;sensor_type;location;lat;lon;timestamp;pressure;altitude;pressure_sealevel;temperature;humidity
70930;BME280;58588;48.102;19.682;2023-03-25T00:00:05;98501.78;;;13.13;100.00
70930;BME280;58588;48.102;19.682;2023-03-25T00:03:12;98487.75;;;13.04;100.00
70930;BME280;58588;48.102;19.682;2023-03-25T00:06:15;98492.19;;;13.17;100.00
70930;BME280;58588;48.102;19.682;2023-03-25T00:09:17;98478.97;;;13.27;100.00
70930;BME280;58588;48.102;19.682;2023-03-25T00:12:20;98470.94;;;13.21;100.00
70930;BME280;58588;48.102;19.682;2023-03-25T00:15:22;98472.94;;;13.25;100.00
70930;BME280;58588;48.102;19.682;2023-03-25T00:18:26;98462.81;;;13.21;100.00
70930;BME280;58588;48.102;19.682;2023-03-25T00:21:32;98466.78;;;13.00;100.00
70930;BME280;58588;48.102;19.682;2023-03-25T00:24:35;98463.94;;;12.76;100.00
70930;BME280;58588;48.102;19.682;2023-03-25T00:27:38;98468.53;;;12.76;100.00
70930;BME280;58588;48.102;19.682;2023-03-25T00:30:41;98468.16;;;12.72;100.00
70930;BME280;58588;48.102;19.682;2023-03-25T00:33:44;98463.41;;;12.68;100.00
70930;BME280;58588;48.102;19.682;2023-03-25T00:36:46;98451.69;;;12.74;100.00
70930;BME280;58588;48.102;19.682;2023-03-25T00:39:48;98437.13;;;12.75;100.00
70930;BME280;58588;48.102;19.682;2023-03-25T00:42:51;98447.09;;;12.93;100.00
70930;BME280;58588;48.102;19.682;2023-03-25T00:45:54;98447.63;;;12.83;100.00
70930;BME280;58588;48.102;19.682;2023-03-25T00:48:56;98456.88;;;12.94;100.00
70930;BME280;58588;48.102;19.682;2023-03-25T00:51:59;98458.25;;;12.84;100.00
70930;BME280;58588;48.102;19.682;2023-03-25T00:55:01;98467.53;;;12.89;100.00
70930;BME280;58588;48.102;19.682;2023-03-25T00:58:05;98463.84;;;12.83;100.00
70930;BME280;58588;48.102;19.682;2023-03-25T01:01:09;98468.09;;;12.79;100.00
70930;BME280;58588;48.102;19.682;2023-03-25T01:04:12;98477.69;;;12.75;100.00
70930;BME280;58588;48.102;19.682;2023-03-25T01:07:16;98479.19;;;12.71;100.00
70930;BME280;58588;48.102;19.682;2023-03-25T01:10:18;98480.00;;;12.71;100.00
70930;BME280;58588;48.102;19.682;2023-03-25T01:13:22;98475.97;;;12.62;100.00
70930;BME280;58588;48.102;19.682;2023-03-25T01:16:25;98471.59;;;12.43;100.00
70930;BME280;58588;48.102;19.682;2023-03-25T01:19:28;98471.59;;;12.43;100.00
70930;BME280;58588;48.102;19.682;2023-03-25T01:22:30;98465.66;;;12.52;100.00
70930;BME280;58588;48.102;19.682;2023-03-25T01:25:32;98459.66;;;12.69;100.00
70930;BME280;58588;48.102;19.682;2023-03-25T01:28:36;98464.75;;;12.77;100.00
70930;BME280;58588;48.102;19.682;2023-03-25T01:31:38;98473.50;;;12.79;100.00
70930;BME280;58588;48.102;19.682;2023-03-25T01:34:40;98467.19;;;12.67;100.00
70930;BME280;58588;48.102;19.682;2023-03-25T01:37:42;98467.53;;;12.70;100.00
70930;BME280;58588;48.102;19.682;2023-03-25T01:40:46;98458.53;;;12.58;100.00
70930;BME280;58588;48.102;19.682;2023-03-25T01:44:05;98449.31;;;12.66;100.00
70930;BME280;58588;48.102;19.682;2023-03-25T01:47:08;98442.53;;;12.56;100.00
70930;BME280;58588;48.102;19.682;2023-03-25T01:50:10;98441.63;;;12.63;100.00
70930;BME280;58588;48.102;19.682;2023-03-25T01:53:14;98443.19;;;12.52;100.00
70930;BME280;58588;48.102;19.682;2023-03-25T01:56:18;98441.31;;;12.52;100.00
70930;BME280;58588;48.102;19.682;2023-03-25T01:59:24;98439.16;;;12.43;100.00
70930;BME280;58588;48.102;19.682;2023-03-25T02:02:27;98432.28;;;12.40;100.00
70930;BME280;58588;48.102;19.682;2023-03-25T02:05:38;98449.22;;;12.36;100.00
70930;BME280;58588;48.102;19.682;2023-03-25T02:08:43;98449.25;;;12.29;100.00
70930;BME280;58588;48.102;19.682;2023-03-25T02:11:45;98446.50;;;12.36;100.00
70930;BME280;58588;48.102;19.682;2023-03-25T02:14:48;98447.47;;;12.41;100.00
70930;BME280;58588;48.102;19.682;2023-03-25T02:17:59;98446.72;;;12.52;100.00
70930;BME280;58588;48.102;19.682;2023-03-25T02:21:22;98454.00;;;12.52;100.00
70930;BME280;58588;48.102;19.682;2023-03-25T02:24:59;98456.03;;;12.56;100.00
70930;BME280;58588;48.102;19.682;2023-03-25T02:28:09;98448.69;;;12.64;100.00
70930;BME280;58588;48.102;19.682;2023-03-25T02:31:40;98451.94;;;12.72;100.00
70930;BME280;58588;48.102;19.682;2023-03-25T02:34:59;98451.69;;;12.74;100.00
70930;BME280;58588;48.102;19.682;2023-03-25T02:38:24;98443.28;;;12.64;100.00
70930;BME280;58588;48.102;19.682;2023-03-25T02:41:35;98447.44;;;12.66;100.00
70930;BME280;58588;48.102;19.682;2023-03-25T02:44:47;98456.13;;;12.68;100.00
70930;BME280;58588;48.102;19.682;2023-03-25T02:47:58;98459.88;;;12.67;100.00
70930;BME280;58588;48.102;19.682;2023-03-25T02:51:06;98463.78;;;12.71;100.00
70930;BME280;58588;48.102;19.682;2023-03-25T02:54:14;98468.59;;;12.69;100.00
70930;BME280;58588;48.102;19.682;2023-03-25T02:57:18;98459.50;;;12.64;100.00
70930;BME280;58588;48.102;19.682;2023-03-25T03:00:25;98461.03;;;12.59;100.00
70930;BME280;58588;48.102;19.682;2023-03-25T03:03:28;98463.09;;;12.39;100.00
70930;BME280;58588;48.102;19.682;2023-03-25T03:06:32;98472.53;;;12.30;100.00
70930;BME280;58588;48.102;19.682;2023-03-25T03:09:44;98472.91;;;12.33;100.00
70930;BME280;58588;48.102;19.682;2023-03-25T03:12:55;98466.75;;;12.26;100.00
70930;BME280;58588;48.102;19.682;2023-03-25T03:16:07;98464.56;;;12.35;100.00
70930;BME280;58588;48.102;19.682;2023-03-25T03:19:20;98469.78;;;12.37;100.00
70930;BME280;58588;48.102;19.682;2023-03-25T03:22:36;98467.06;;;12.37;100.00
70930;BME280;58588;48.102;19.682;2023-03-25T03:25:46;98473.97;;;12.32;100.00
70930;BME280;58588;48.102;19.682;2023-03-25T03:28:55;98467.41;;;12.22;100.00
70930;BME280;58588;48.102;19.682;2023-03-25T03:32:03;98471.09;;;12.27;100.00
70930;BME280;58588;48.102;19.682;2023-03-25T03:35:10;98468.03;;;12.24;100.00
70930;BME280;58588;48.102;19.682;2023-03-25T03:38:14;98469.28;;;12.21;100.00
70930;BME280;58588;48.102;19.682;2023-03-25T03:41:21;98473.03;;;12.20;100.00
70930;BME280;58588;48.102;19.682;2023-03-25T03:44:28;98472.97;;;12.27;100.00
70930;BME280;58588;48.102;19.682;2023-03-25T03:47:36;98467.13;;;12.30;100.00
70930;BME280;58588;48.102;19.682;2023-03-25T03:50:45;98467.22;;;12.42;100.00
70930;BME280;58588;48.102;19.682;2023-03-25T03:53:52;98469.03;;;12.48;100.00
70930;BME280;58588;48.102;19.682;2023-03-25T03:57:01;98474.38;;;12.54;100.00
70930;BME280;58588;48.102;19.682;2023-03-25T04:00:06;98477.81;;;12.43;100.00
70930;BME280;58588;48.102;19.682;2023-03-25T04:03:14;98484.84;;;12.26;100.00
70930;BME280;58588;48.102;19.682;2023-03-25T04:06:26;98508.59;;;12.17;100.00
70930;BME280;58588;48.102;19.682;2023-03-25T04:09:39;98510.44;;;11.92;100.00
70930;BME280;58588;48.102;19.682;2023-03-25T04:12:50;98503.34;;;11.97;100.00
70930;BME280;58588;48.102;19.682;2023-03-25T04:15:55;98510.09;;;12.13;100.00
70930;BME280;58588;48.102;19.682;2023-03-25T04:18:57;98513.94;;;11.99;100.00
70930;BME280;58588;48.102;19.682;2023-03-25T04:22:00;98515.31;;;12.08;100.00
70930;BME280;58588;48.102;19.682;2023-03-25T04:25:04;98529.09;;;12.00;100.00
70930;BME280;58588;48.102;19.682;2023-03-25T04:28:08;98531.69;;;11.88;100.00
70930;BME280;58588;48.102;19.682;2023-03-25T04:31:14;98536.22;;;11.94;100.00
70930;BME280;58588;48.102;19.682;2023-03-25T04:34:17;98533.72;;;11.93;100.00
70930;BME280;58588;48.102;19.682;2023-03-25T04:37:20;98532.09;;;11.85;100.00
70930;BME280;58588;48.102;19.682;2023-03-25T04:40:23;98540.38;;;11.90;100.00
70930;BME280;58588;48.102;19.682;2023-03-25T04:43:27;98537.00;;;12.01;100.00
70930;BME280;58588;48.102;19.682;2023-03-25T04:46:29;98539.81;;;12.13;100.00
70930;BME280;58588;48.102;19.682;2023-03-25T04:49:32;98532.97;;;12.11;100.00
70930;BME280;58588;48.102;19.682;2023-03-25T04:52:35;98530.25;;;12.11;100.00
70930;BME280;58588;48.102;19.682;2023-03-25T04:55:37;98534.00;;;12.10;100.00
70930;BME280;58588;48.102;19.682;2023-03-25T04:58:48;98544.16;;;12.14;100.00
70930;BME280;58588;48.102;19.682;2023-03-25T05:01:50;98549.16;;;12.11;100.00
70930;BME280;58588;48.102;19.682;2023-03-25T05:04:53;98553.28;;;11.88;100.00
70930;BME280;58588;48.102;19.682;2023-03-25T05:08:02;98563.00;;;11.96;100.00
70930;BME280;58588;48.102;19.682;2023-03-25T05:11:05;98573.66;;;11.77;100.00
70930;BME280;58588;48.102;19.682;2023-03-25T05:14:09;98575.53;;;11.77;100.00
70930;BME280;58588;48.102;19.682;2023-03-25T05:17:11;98568.94;;;11.66;100.00
70930;BME280;58588;48.102;19.682;2023-03-25T05:20:13;98578.06;;;11.72;100.00
70930;BME280;58588;48.102;19.682;2023-03-25T05:23:16;98586.41;;;11.64;100.00
70930;BME280;58588;48.102;19.682;2023-03-25T05:26:18;98595.81;;;11.48;100.00
70930;BME280;58588;48.102;19.682;2023-03-25T05:29:22;98598.53;;;11.48;100.00
70930;BME280;58588;48.102;19.682;2023-03-25T05:32:24;98575.47;;;11.45;100.00
70930;BME280;58588;48.102;19.682;2023-03-25T05:35:29;98588.97;;;11.52;100.00
70930;BME280;58588;48.102;19.682;2023-03-25T05:38:31;98583.91;;;11.62;100.00
70930;BME280;58588;48.102;19.682;2023-03-25T05:41:33;98582.84;;;11.70;100.00
70930;BME280;58588;48.102;19.682;2023-03-25T05:44:39;98575.78;;;11.75;100.00
70930;BME280;58588;48.102;19.682;2023-03-25T05:47:46;98588.00;;;11.85;100.00
70930;BME280;58588;48.102;19.682;2023-03-25T05:50:48;98587.16;;;11.77;100.00
70930;BME280;58588;48.102;19.682;2023-03-25T05:53:56;98570.38;;;11.75;100.00
70930;BME280;58588;48.102;19.682;2023-03-25T05:56:58;98579.06;;;11.84;100.00
70930;BME280;58588;48.102;19.682;2023-03-25T06:00:01;98571.31;;;11.94;100.00
70930;BME280;58588;48.102;19.682;2023-03-25T06:03:05;98576.44;;;12.02;100.00
70930;BME280;58588;48.102;19.682;2023-03-25T06:06:08;98570.78;;;12.11;100.00
70930;BME280;58588;48.102;19.682;2023-03-25T06:09:13;98566.06;;;11.99;100.00
70930;BME280;58588;48.102;19.682;2023-03-25T06:12:18;98586.94;;;11.86;100.00
70930;BME280;58588;48.102;19.682;2023-03-25T06:15:22;98595.38;;;11.58;100.00
70930;BME280;58588;48.102;19.682;2023-03-25T06:18:28;98595.09;;;11.72;100.00
70930;BME280;58588;48.102;19.682;2023-03-25T06:21:31;98594.34;;;11.52;100.00
70930;BME280;58588;48.102;19.682;2023-03-25T06:24:34;98575.47;;;11.52;100.00
70930;BME280;58588;48.102;19.682;2023-03-25T06:27:36;98574.31;;;11.73;100.00
70930;BME280;58588;48.102;19.682;2023-03-25T06:30:41;98595.16;;;11.59;100.00
70930;BME280;58588;48.102;19.682;2023-03-25T06:33:44;98601.72;;;11.76;100.00
70930;BME280;58588;48.102;19.682;2023-03-25T06:36:46;98598.78;;;11.40;100.00
70930;BME280;58588;48.102;19.682;2023-03-25T06:39:49;98592.75;;;11.38;100.00
70930;BME280;58588;48.102;19.682;2023-03-25T06:42:56;98583.72;;;11.57;100.00
70930;BME280;58588;48.102;19.682;2023-03-25T06:45:59;98590.34;;;11.61;100.00
70930;BME280;58588;48.102;19.682;2023-03-25T06:49:01;98613.06;;;11.47;100.00
70930;BME280;58588;48.102;19.682;2023-03-25T06:52:04;98619.69;;;11.44;100.00
70930;BME280;58588;48.102;19.682;2023-03-25T06:55:07;98611.22;;;11.41;100.00
70930;BME280;58588;48.102;19.682;2023-03-25T06:58:09;98624.28;;;11.37;100.00
70930;BME280;58588;48.102;19.682;2023-03-25T07:01:12;98621.81;;;11.36;100.00
70930;BME280;58588;48.102;19.682;2023-03-25T07:04:15;98621.56;;;11.44;100.00
70930;BME280;58588;48.102;19.682;2023-03-25T07:07:17;98616.38;;;11.49;100.00
70930;BME280;58588;48.102;19.682;2023-03-25T07:10:19;98616.16;;;11.44;100.00
70930;BME280;58588;48.102;19.682;2023-03-25T07:13:21;98607.44;;;11.48;100.00
70930;BME280;58588;48.102;19.682;2023-03-25T07:16:25;98610.13;;;11.48;100.00
70930;BME280;58588;48.102;19.682;2023-03-25T07:19:27;98610.72;;;11.64;100.00
70930;BME280;58588;48.102;19.682;2023-03-25T07:22:29;98606.09;;;11.71;100.00
70930;BME280;58588;48.102;19.682;2023-03-25T07:25:31;98604.41;;;11.76;100.00
70930;BME280;58588;48.102;19.682;2023-03-25T07:28:33;98604.56;;;11.95;100.00
70930;BME280;58588;48.102;19.682;2023-03-25T07:31:38;98607.72;;;12.17;100.00
70930;BME280;58588;48.102;19.682;2023-03-25T07:34:41;98610.69;;;12.40;100.00
70930;BME280;58588;48.102;19.682;2023-03-25T07:37:43;98617.03;;;12.52;100.00
70930;BME280;58588;48.102;19.682;2023-03-25T07:40:45;98609.03;;;12.64;100.00
70930;BME280;58588;48.102;19.682;2023-03-25T07:43:47;98614.69;;;12.63;100.00
70930;BME280;58588;48.102;19.682;2023-03-25T07:46:50;98604.91;;;12.62;100.00
70930;BME280;58588;48.102;19.682;2023-03-25T07:49:52;98606.91;;;12.73;100.00
70930;BME280;58588;48.102;19.682;2023-03-25T07:52:55;98594.41;;;12.97;100.00
70930;BME280;58588;48.102;19.682;2023-03-25T07:55:57;98596.56;;;13.31;100.00
70930;BME280;58588;48.102;19.682;2023-03-25T07:58:59;98607.75;;;13.53;100.00
70930;BME280;58588;48.102;19.682;2023-03-25T08:02:02;98616.47;;;13.37;100.00
70930;BME280;58588;48.102;19.682;2023-03-25T08:05:05;98620.03;;;13.12;100.00
70930;BME280;58588;48.102;19.682;2023-03-25T08:08:07;98625.47;;;12.88;100.00
70930;BME280;58588;48.102;19.682;2023-03-25T08:11:09;98628.41;;;12.86;100.00
70930;BME280;58588;48.102;19.682;2023-03-25T08:14:11;98627.19;;;12.82;100.00
70930;BME280;58588;48.102;19.682;2023-03-25T08:17:15;98620.06;;;12.88;100.00
70930;BME280;58588;48.102;19.682;2023-03-25T08:20:17;98615.22;;;12.96;100.00
70930;BME280;58588;48.102;19.682;2023-03-25T08:23:19;98615.41;;;13.20;100.00
70930;BME280;58588;48.102;19.682;2023-03-25T08:26:22;98617.00;;;13.27;100.00
70930;BME280;58588;48.102;19.682;2023-03-25T08:29:24;98604.97;;;13.23;100.00
70930;BME280;58588;48.102;19.682;2023-03-25T08:32:28;98606.56;;;13.06;100.00
70930;BME280;58588;48.102;19.682;2023-03-25T08:35:31;98604.25;;;13.09;100.00
70930;BME280;58588;48.102;19.682;2023-03-25T08:38:33;98594.97;;;13.24;100.00
70930;BME280;58588;48.102;19.682;2023-03-25T08:41:35;98599.94;;;13.63;100.00
70930;BME280;58588;48.102;19.682;2023-03-25T08:44:39;98612.72;;;13.75;100.00
70930;BME280;58588;48.102;19.682;2023-03-25T08:47:43;98609.47;;;13.66;100.00
70930;BME280;58588;48.102;19.682;2023-03-25T08:50:45;98615.19;;;13.58;100.00
70930;BME280;58588;48.102;19.682;2023-03-25T08:53:47;98597.66;;;13.42;100.00
70930;BME280;58588;48.102;19.682;2023-03-25T08:56:49;98598.13;;;13.57;100.00
70930;BME280;58588;48.102;19.682;2023-03-25T09:08:22;98584.50;;;14.24;100.00
70930;BME280;58588;48.102;19.682;2023-03-25T09:15:27;98588.34;;;14.47;100.00
70930;BME280;58588;48.102;19.682;2023-03-25T09:18:30;98577.97;;;14.67;100.00
70930;BME280;58588;48.102;19.682;2023-03-25T09:21:34;98568.44;;;14.99;100.00
70930;BME280;58588;48.102;19.682;2023-03-25T09:24:38;98573.25;;;15.09;100.00
70930;BME280;58588;48.102;19.682;2023-03-25T09:27:40;98563.16;;;15.45;100.00
70930;BME280;58588;48.102;19.682;2023-03-25T09:30:42;98557.88;;;15.38;100.00
70930;BME280;58588;48.102;19.682;2023-03-25T09:33:44;98555.31;;;15.72;100.00
70930;BME280;58588;48.102;19.682;2023-03-25T09:36:46;98548.88;;;15.90;100.00
70930;BME280;58588;48.102;19.682;2023-03-25T09:39:50;98547.00;;;16.24;100.00
70930;BME280;58588;48.102;19.682;2023-03-25T09:43:00;98541.28;;;16.71;96.26
70930;BME280;58588;48.102;19.682;2023-03-25T09:46:05;98542.50;;;16.80;88.14
70930;BME280;58588;48.102;19.682;2023-03-25T09:49:11;98548.69;;;16.92;81.24
70930;BME280;58588;48.102;19.682;2023-03-25T09:52:17;98543.81;;;16.77;80.08
70930;BME280;58588;48.102;19.682;2023-03-25T09:55:25;98545.38;;;17.29;82.02
70930;BME280;58588;48.102;19.682;2023-03-25T09:58:35;98545.81;;;17.64;78.57
70930;BME280;58588;48.102;19.682;2023-03-25T10:01:46;98531.03;;;17.60;72.22
70930;BME280;58588;48.102;19.682;2023-03-25T10:05:10;98539.44;;;17.76;73.06
70930;BME280;58588;48.102;19.682;2023-03-25T10:08:21;98542.94;;;17.32;72.52
70930;BME280;58588;48.102;19.682;2023-03-25T10:11:34;98543.06;;;17.64;72.71
70930;BME280;58588;48.102;19.682;2023-03-25T10:14:47;98539.81;;;18.16;70.75
70930;BME280;58588;48.102;19.682;2023-03-25T10:18:10;98536.63;;;18.57;69.25
70930;BME280;58588;48.102;19.682;2023-03-25T10:21:26;98534.09;;;18.50;65.64
70930;BME280;58588;48.102;19.682;2023-03-25T10:24:36;98537.09;;;18.16;64.82
70930;BME280;58588;48.102;19.682;2023-03-25T10:27:44;98530.75;;;17.62;63.76
70930;BME280;58588;48.102;19.682;2023-03-25T10:30:49;98533.81;;;17.65;62.06
70930;BME280;58588;48.102;19.682;2023-03-25T10:33:55;98531.22;;;17.54;62.57
70930;BME280;58588;48.102;19.682;2023-03-25T10:37:06;98541.63;;;17.79;60.83
70930;BME280;58588;48.102;19.682;2023-03-25T10:40:18;98538.38;;;18.36;60.01
70930;BME280;58588;48.102;19.682;2023-03-25T10:43:26;98540.94;;;19.32;64.50
70930;BME280;58588;48.102;19.682;2023-03-25T10:46:34;98536.38;;;19.01;52.59
70930;BME280;58588;48.102;19.682;2023-03-25T10:49:47;98535.56;;;19.52;55.40
70930;BME280;58588;48.102;19.682;2023-03-25T10:52:51;98543.72;;;18.26;50.98
70930;BME280;58588;48.102;19.682;2023-03-25T10:56:00;98552.31;;;18.39;53.62
70930;BME280;58588;48.102;19.682;2023-03-25T10:59:11;98548.84;;;17.46;53.37
70930;BME280;58588;48.102;19.682;2023-03-25T11:02:18;98542.91;;;18.25;54.73
70930;BME280;58588;48.102;19.682;2023-03-25T11:08:55;98556.03;;;18.01;53.54
70930;BME280;58588;48.102;19.682;2023-03-25T11:11:59;98556.84;;;17.75;54.95
70930;BME280;58588;48.102;19.682;2023-03-25T11:15:05;98557.84;;;17.47;56.93
70930;BME280;58588;48.102;19.682;2023-03-25T11:18:11;98552.78;;;17.77;58.67
70930;BME280;58588;48.102;19.682;2023-03-25T11:21:17;98548.31;;;17.93;61.33
70930;BME280;58588;48.102;19.682;2023-03-25T11:24:30;98560.16;;;16.77;64.60
70930;BME280;58588;48.102;19.682;2023-03-25T11:27:41;98562.69;;;16.67;66.77
70930;BME280;58588;48.102;19.682;2023-03-25T11:31:10;98563.66;;;17.11;69.70
70930;BME280;58588;48.102;19.682;2023-03-25T11:34:18;98549.66;;;16.69;68.06
70930;BME280;58588;48.102;19.682;2023-03-25T11:37:34;98573.56;;;15.48;98.32
70930;BME280;58588;48.102;19.682;2023-03-25T11:40:54;98573.03;;;14.52;100.00
70930;BME280;58588;48.102;19.682;2023-03-25T11:43:57;98581.97;;;14.11;100.00
70930;BME280;58588;48.102;19.682;2023-03-25T11:47:03;98570.28;;;13.99;100.00
70930;BME280;58588;48.102;19.682;2023-03-25T11:50:16;98570.59;;;13.90;100.00
70930;BME280;58588;48.102;19.682;2023-03-25T11:53:20;98568.06;;;14.07;100.00
70930;BME280;58588;48.102;19.682;2023-03-25T11:56:29;98565.34;;;14.07;100.00
70930;BME280;58588;48.102;19.682;2023-03-25T11:59:36;98568.06;;;14.49;100.00
70930;BME280;58588;48.102;19.682;2023-03-25T12:02:42;98555.16;;;15.26;100.00
70930;BME280;58588;48.102;19.682;2023-03-25T12:05:56;98556.16;;;15.72;100.00
70930;BME280;58588;48.102;19.682;2023-03-25T12:08:59;98547.84;;;16.41;96.97
70930;BME280;58588;48.102;19.682;2023-03-25T12:12:13;98553.44;;;15.89;84.62
70930;BME280;58588;48.102;19.682;2023-03-25T12:15:29;98561.47;;;15.56;99.76
70930;BME280;58588;48.102;19.682;2023-03-25T12:18:44;98565.34;;;14.61;100.00
70930;BME280;58588;48.102;19.682;2023-03-25T12:21:59;98585.41;;;14.18;100.00
70930;BME280;58588;48.102;19.682;2023-03-25T12:25:17;98589.97;;;14.06;100.00
70930;BME280;58588;48.102;19.682;2023-03-25T12:32:22;98574.69;;;14.53;100.00
70930;BME280;58588;48.102;19.682;2023-03-25T12:35:34;98572.09;;;14.70;100.00
70930;BME280;58588;48.102;19.682;2023-03-25T12:38:47;98572.00;;;14.77;100.00
70930;BME280;58588;48.102;19.682;2023-03-25T12:41:59;98583.63;;;14.54;93.16
70930;BME280;58588;48.102;19.682;2023-03-25T12:45:22;98570.53;;;14.62;99.51
70930;BME280;58588;48.102;19.682;2023-03-25T12:48:34;98572.66;;;14.49;100.00
70930;BME280;58588;48.102;19.682;2023-03-25T12:51:46;98573.66;;;14.36;100.00
70930;BME280;58588;48.102;19.682;2023-03-25T12:55:02;98566.25;;;14.43;100.00
70930;BME280;58588;48.102;19.682;2023-03-25T12:58:26;98567.63;;;14.76;100.00
70930;BME280;58588;48.102;19.682;2023-03-25T13:01:39;98565.47;;;15.13;99.18
70930;BME280;58588;48.102;19.682;2023-03-25T13:04:56;98565.47;;;15.53;95.16
70930;BME280;58588;48.102;19.682;2023-03-25T13:08:09;98548.97;;;15.66;92.90
70930;BME280;58588;48.102;19.682;2023-03-25T13:11:17;98534.81;;;15.81;92.03
70930;BME280;58588;48.102;19.682;2023-03-25T13:14:26;98537.59;;;15.69;90.13
70930;BME280;58588;48.102;19.682;2023-03-25T13:17:37;98535.13;;;15.56;91.92
70930;BME280;58588;48.102;19.682;2023-03-25T13:20:44;98543.31;;;15.44;88.73
70930;BME280;58588;48.102;19.682;2023-03-25T13:23:54;98537.69;;;15.74;93.28
70930;BME280;58588;48.102;19.682;2023-03-25T13:26:58;98522.81;;;15.94;87.41
70930;BME280;58588;48.102;19.682;2023-03-25T13:30:07;98540.75;;;16.40;78.34
70930;BME280;58588;48.102;19.682;2023-03-25T13:33:18;98537.88;;;16.47;74.21
70930;BME280;58588;48.102;19.682;2023-03-25T13:36:25;98539.59;;;16.53;74.96
70930;BME280;58588;48.102;19.682;2023-03-25T13:39:46;98537.72;;;16.70;68.89
70930;BME280;58588;48.102;19.682;2023-03-25T13:42:55;98532.03;;;16.72;69.17
70930;BME280;58588;48.102;19.682;2023-03-25T13:46:04;98537.38;;;16.50;68.75
70930;BME280;58588;48.102;19.682;2023-03-25T13:49:14;98525.56;;;16.11;69.13
70930;BME280;58588;48.102;19.682;2023-03-25T13:52:18;98522.66;;;16.00;72.23
70930;BME280;58588;48.102;19.682;2023-03-25T13:55:24;98521.72;;;16.23;71.07
70930;BME280;58588;48.102;19.682;2023-03-25T13:58:56;98526.91;;;16.92;70.81
70930;BME280;58588;48.102;19.682;2023-03-25T14:02:20;98507.97;;;17.24;65.36
70930;BME280;58588;48.102;19.682;2023-03-25T14:05:44;98520.31;;;17.54;65.25
70930;BME280;58588;48.102;19.682;2023-03-25T14:09:16;98520.22;;;17.22;64.09
70930;BME280;58588;48.102;19.682;2023-03-25T14:12:31;98518.22;;;16.95;66.45
70930;BME280;58588;48.102;19.682;2023-03-25T14:15:39;98515.72;;;16.38;62.82
70930;BME280;58588;48.102;19.682;2023-03-25T14:18:44;98515.19;;;16.92;63.58
70930;BME280;58588;48.102;19.682;2023-03-25T14:21:49;98503.78;;;16.95;61.46
70930;BME280;58588;48.102;19.682;2023-03-25T14:24:54;98520.34;;;17.10;62.48
70930;BME280;58588;48.102;19.682;2023-03-25T14:27:58;98510.63;;;17.19;59.75
70930;BME280;58588;48.102;19.682;2023-03-25T14:31:16;98517.84;;;17.08;58.60
70930;BME280;58588;48.102;19.682;2023-03-25T14:34:25;98513.94;;;17.43;59.38
70930;BME280;58588;48.102;19.682;2023-03-25T14:37:31;98521.06;;;17.71;58.28
70930;BME280;58588;48.102;19.682;2023-03-25T14:40:47;98527.84;;;17.03;54.92
70930;BME280;58588;48.102;19.682;2023-03-25T14:44:15;98514.47;;;17.67;56.91
70930;BME280;58588;48.102;19.682;2023-03-25T14:47:35;98501.41;;;16.65;54.21
70930;BME280;58588;48.102;19.682;2023-03-25T14:50:37;98514.88;;;16.21;56.00
70930;BME280;58588;48.102;19.682;2023-03-25T14:53:41;98517.59;;;15.75;57.41
70930;BME280;58588;48.102;19.682;2023-03-25T14:56:58;98509.63;;;15.17;57.21
70930;BME280;58588;48.102;19.682;2023-03-25T15:00:05;98518.63;;;15.17;59.35
70930;BME280;58588;48.102;19.682;2023-03-25T15:03:15;98518.66;;;14.94;59.52
70930;BME280;58588;48.102;19.682;2023-03-25T15:06:28;98523.22;;;15.05;62.35
70930;BME280;58588;48.102;19.682;2023-03-25T15:09:44;98522.50;;;15.10;60.45
70930;BME280;58588;48.102;19.682;2023-03-25T15:12:51;98519.44;;;15.18;60.57
70930;BME280;58588;48.102;19.682;2023-03-25T15:15:59;98524.78;;;14.89;59.76
70930;BME280;58588;48.102;19.682;2023-03-25T15:19:05;98520.88;;;14.85;61.39
70930;BME280;58588;48.102;19.682;2023-03-25T15:22:19;98528.69;;;14.58;61.12
70930;BME280;58588;48.102;19.682;2023-03-25T15:25:22;98515.13;;;14.70;62.28
70930;BME280;58588;48.102;19.682;2023-03-25T15:28:38;98520.88;;;14.50;62.95
70930;BME280;58588;48.102;19.682;2023-03-25T15:31:53;98524.88;;;14.36;63.06
70930;BME280;58588;48.102;19.682;2023-03-25T15:35:28;98525.66;;;14.13;63.52
70930;BME280;58588;48.102;19.682;2023-03-25T15:38:49;98519.16;;;14.14;62.66
70930;BME280;58588;48.102;19.682;2023-03-25T15:45:45;98523.63;;;14.08;60.88
70930;BME280;58588;48.102;19.682;2023-03-25T15:52:33;98514.66;;;13.96;62.92
70930;BME280;58588;48.102;19.682;2023-03-25T15:55:40;98524.16;;;14.99;59.25
70930;BME280;58588;48.102;19.682;2023-03-25T15:58:48;98533.25;;;16.30;55.05
70930;BME280;58588;48.102;19.682;2023-03-25T16:01:53;98527.50;;;16.44;54.67
70930;BME280;58588;48.102;19.682;2023-03-25T16:04:58;98534.06;;;15.69;55.96
70930;BME280;58588;48.102;19.682;2023-03-25T16:08:07;98534.06;;;15.05;58.16
70930;BME280;58588;48.102;19.682;2023-03-25T16:11:15;98535.06;;;14.76;58.89
70930;BME280;58588;48.102;19.682;2023-03-25T16:14:28;98537.97;;;14.51;58.65
70930;BME280;58588;48.102;19.682;2023-03-25T16:17:31;98539.81;;;14.27;59.15
70930;BME280;58588;48.102;19.682;2023-03-25T16:20:36;98537.22;;;14.32;56.29
70930;BME280;58588;48.102;19.682;2023-03-25T16:23:38;98532.50;;;14.27;57.37
70930;BME280;58588;48.102;19.682;2023-03-25T16:30:31;98544.59;;;13.71;57.35
70930;BME280;58588;48.102;19.682;2023-03-25T16:33:43;98534.94;;;13.63;59.66
70930;BME280;58588;48.102;19.682;2023-03-25T16:36:47;98545.56;;;13.77;59.01
70930;BME280;58588;48.102;19.682;2023-03-25T16:39:52;98548.75;;;14.04;59.19